PAKP

Anaktuvuk Pass Airport

Airport
ICAO code
PAKP
IATA Code
AKP
Summary
ICAO Region
NAM
ICAO Territory
Location

Anaktuvuk Pass, Alaska

Serving
Anaktuvuk Pass
Elevation
2102 ft
Coordinates
68° 8' 1" N , 151° 44' 35" W
Metar
PAKP 201556Z AUTO 22009KT 10SM CLR 12/07 A3016 RMK AO2 SLP232 T01170067

Runways

Designator Length Width Surface Rops
2/20 1463 30 GRAVEL-G No/No

Airport map

Aerial View

SKYbrary Partners:

Safety knowledge contributed by: